createdAt,value
2019-03-23T00:00:59.764Z,7.94
2019-03-23T00:03:34.344Z,7.96
2019-03-23T00:06:08.793Z,7.89
2019-03-23T00:08:43.772Z,7.94
2019-03-23T00:11:18.309Z,7.99
2019-03-23T00:13:52.604Z,8.00
2019-03-23T00:16:26.990Z,8.02
2019-03-23T00:19:01.409Z,8.02
2019-03-23T00:21:36.196Z,7.93
2019-03-23T00:24:10.522Z,8.01
2019-03-23T00:26:44.936Z,7.99
2019-03-23T00:29:19.315Z,7.86
2019-03-23T00:31:53.656Z,7.99
2019-03-23T00:34:28.344Z,8.05
2019-03-23T00:37:02.679Z,8.08
2019-03-23T00:39:37.512Z,8.06
2019-03-23T00:42:11.944Z,7.82
2019-03-23T00:44:46.335Z,7.74
2019-03-23T00:47:20.745Z,7.61
2019-03-23T00:49:55.138Z,7.21
2019-03-23T00:52:29.576Z,7.06
2019-03-23T00:55:04.253Z,6.88
2019-03-23T00:57:38.722Z,6.88
2019-03-23T01:00:13.710Z,6.75
2019-03-23T01:02:48.244Z,6.75
2019-03-23T01:05:22.617Z,6.53
2019-03-23T01:07:56.939Z,6.44
2019-03-23T01:10:31.611Z,6.37
2019-03-23T01:13:06.081Z,6.30
2019-03-23T01:15:40.375Z,6.30
2019-03-23T01:18:14.736Z,6.20
2019-03-23T01:20:49.831Z,6.22
2019-03-23T01:23:24.355Z,6.19
2019-03-23T01:25:58.711Z,6.18
2019-03-23T01:28:33.285Z,6.10
2019-03-23T01:31:07.711Z,6.05
2019-03-23T01:33:42.073Z,6.02
2019-03-23T01:36:16.712Z,6.07
2019-03-23T01:38:51.065Z,6.07
2019-03-23T01:41:25.389Z,6.05
2019-03-23T01:43:59.848Z,6.03
2019-03-23T01:46:34.583Z,5.97
2019-03-23T01:49:08.930Z,5.91
2019-03-23T01:51:43.231Z,5.86
2019-03-23T01:54:17.733Z,5.82
2019-03-23T01:56:52.184Z,5.82
2019-03-23T01:59:26.854Z,5.82
2019-03-23T02:02:01.277Z,5.81
2019-03-23T02:04:35.660Z,5.81
2019-03-23T02:07:14.177Z,5.80
2019-03-23T02:09:46.467Z,5.80
2019-03-23T02:12:20.759Z,5.81
2019-03-23T02:14:55.448Z,5.82
2019-03-23T02:17:29.842Z,5.76
2019-03-23T02:20:04.782Z,5.80
2019-03-23T02:22:40.182Z,5.83
2019-03-23T02:25:14.726Z,5.83
2019-03-23T02:27:49.054Z,5.79
2019-03-23T02:30:23.776Z,5.85
2019-03-23T02:32:58.071Z,5.85
2019-03-23T02:35:32.458Z,5.84
2019-03-23T02:38:06.850Z,5.78
2019-03-23T02:40:41.430Z,5.64
2019-03-23T02:43:15.768Z,5.55
2019-03-23T02:45:50.475Z,5.55
2019-03-23T02:48:24.896Z,5.48
2019-03-23T02:50:59.397Z,5.41
2019-03-23T02:53:33.729Z,5.39
2019-03-23T02:56:08.053Z,5.32
2019-03-23T02:58:42.558Z,5.33
2019-03-23T03:01:16.931Z,5.42
2019-03-23T03:03:51.527Z,5.43
2019-03-23T03:06:26.002Z,5.37
2019-03-23T03:09:00.355Z,5.25
2019-03-23T03:11:34.792Z,5.11
2019-03-23T03:14:09.503Z,4.97
2019-03-23T03:16:43.924Z,4.90
2019-03-23T03:19:18.246Z,4.82
2019-03-23T03:21:52.714Z,4.75
2019-03-23T03:24:27.313Z,4.75
2019-03-23T03:27:02.004Z,4.76
2019-03-23T03:29:36.636Z,4.82
2019-03-23T03:32:11.047Z,4.91
2019-03-23T03:34:45.464Z,4.96
2019-03-23T03:37:19.851Z,4.97
2019-03-23T03:39:54.521Z,4.96
2019-03-23T03:42:29.264Z,4.91
2019-03-23T03:45:03.873Z,4.88
2019-03-23T03:47:41.311Z,4.82
2019-03-23T03:50:14.571Z,4.86
2019-03-23T03:52:48.957Z,4.86
2019-03-23T03:55:23.891Z,4.88
2019-03-23T03:57:58.751Z,4.96
2019-03-23T04:00:33.087Z,5.00
2019-03-23T04:03:07.437Z,4.97
2019-03-23T04:05:41.839Z,4.98
2019-03-23T04:08:16.240Z,5.02
2019-03-23T04:10:50.569Z,5.07
2019-03-23T04:13:25.724Z,5.07
2019-03-23T04:16:00.075Z,5.07
2019-03-23T04:18:34.455Z,5.07
2019-03-23T04:21:09.562Z,5.11
2019-03-23T04:23:44.328Z,5.20
2019-03-23T04:26:18.821Z,5.36
2019-03-23T04:28:53.199Z,5.50
2019-03-23T04:31:27.621Z,5.65
2019-03-23T04:34:01.980Z,5.78
2019-03-23T04:36:36.408Z,5.91
2019-03-23T04:39:11.404Z,6.11
2019-03-23T04:41:45.702Z,6.19
2019-03-23T04:44:20.089Z,6.19
2019-03-23T04:46:54.375Z,6.26
2019-03-23T04:49:28.807Z,6.38
2019-03-23T04:52:03.627Z,6.42
2019-03-23T04:54:39.030Z,6.58
2019-03-23T04:57:13.479Z,6.58
2019-03-23T04:59:48.215Z,6.72
2019-03-23T05:02:22.636Z,6.72
2019-03-23T05:04:57.696Z,6.63
2019-03-23T05:07:32.026Z,6.72
2019-03-23T05:10:07.276Z,6.74
2019-03-23T05:12:41.693Z,6.74
2019-03-23T05:15:16.162Z,6.87
2019-03-23T05:17:50.500Z,6.82
2019-03-23T05:20:32.206Z,6.96
2019-03-23T05:23:06.610Z,6.95
2019-03-23T05:25:40.999Z,6.95
2019-03-23T05:28:15.512Z,6.72
2019-03-23T05:30:49.906Z,6.74
2019-03-23T05:33:24.317Z,6.86
2019-03-23T05:35:59.130Z,6.90
2019-03-23T05:38:43.588Z,7.08
2019-03-23T05:41:09.832Z,7.08
2019-03-23T05:43:44.519Z,6.95
2019-03-23T05:46:18.899Z,6.95
2019-03-23T05:48:53.186Z,7.06
2019-03-23T05:51:27.543Z,7.06
2019-03-23T05:54:03.920Z,7.24
2019-03-23T05:56:38.304Z,7.28
2019-03-23T05:59:12.895Z,7.27
2019-03-23T06:01:47.271Z,7.25
2019-03-23T06:04:22.085Z,7.25
2019-03-23T06:06:56.525Z,7.21
2019-03-23T06:09:31.148Z,7.22
2019-03-23T06:12:05.628Z,7.23
2019-03-23T06:14:39.993Z,7.40
2019-03-23T06:17:14.492Z,7.43
2019-03-23T06:19:48.812Z,7.40
2019-03-23T06:22:23.262Z,7.55
2019-03-23T06:24:57.608Z,7.60
2019-03-23T06:27:32.153Z,7.51
2019-03-23T06:30:07.200Z,7.51
2019-03-23T06:32:42.014Z,7.63
2019-03-23T06:35:16.538Z,7.76
2019-03-23T06:37:51.019Z,7.87
2019-03-23T06:40:25.435Z,7.91
2019-03-23T06:43:00.170Z,7.88
2019-03-23T06:45:34.435Z,8.03
2019-03-23T06:48:08.906Z,8.05
2019-03-23T06:50:43.227Z,8.03
2019-03-23T06:53:17.648Z,8.31
2019-03-23T06:55:56.098Z,8.45
2019-03-23T06:58:30.432Z,8.54
2019-03-23T07:01:04.954Z,8.71
2019-03-23T07:03:40.170Z,8.90
2019-03-23T07:06:14.566Z,8.98
2019-03-23T07:08:50.921Z,9.06
2019-03-23T07:11:25.252Z,9.10
2019-03-23T07:13:59.910Z,9.19
2019-03-23T07:16:34.294Z,9.30
2019-03-23T07:19:08.659Z,9.26
2019-03-23T07:21:43.025Z,9.18
2019-03-23T07:24:17.536Z,9.40
2019-03-23T07:26:51.845Z,9.52
2019-03-23T07:29:26.331Z,9.54
2019-03-23T07:32:05.603Z,9.48
2019-03-23T07:34:36.922Z,9.57
2019-03-23T07:37:11.382Z,9.54
2019-03-23T07:39:45.697Z,9.74
2019-03-23T07:42:20.298Z,9.96
2019-03-23T07:44:54.978Z,9.92
2019-03-23T07:47:29.296Z,10.00
2019-03-23T07:50:04.090Z,10.03
2019-03-23T07:52:38.396Z,10.05
2019-03-23T07:55:14.149Z,10.05
2019-03-23T07:57:48.655Z,10.08
2019-03-23T08:00:23.746Z,10.08
2019-03-23T08:02:58.089Z,10.13
2019-03-23T08:05:32.465Z,10.19
2019-03-23T08:08:06.811Z,10.06
2019-03-23T08:10:41.299Z,10.14
2019-03-23T08:13:15.712Z,10.10
2019-03-23T08:15:50.146Z,10.04
2019-03-23T08:18:24.887Z,10.09
2019-03-23T08:20:59.274Z,10.06
2019-03-23T08:23:33.665Z,10.16
2019-03-23T08:26:08.100Z,10.10
2019-03-23T08:28:42.450Z,10.12
2019-03-23T08:31:16.856Z,10.37
2019-03-23T08:33:52.095Z,10.51
2019-03-23T08:36:26.604Z,10.57
2019-03-23T08:39:00.987Z,10.64
2019-03-23T08:41:35.558Z,10.63
2019-03-23T08:44:09.928Z,10.62
2019-03-23T08:46:46.282Z,10.68
2019-03-23T08:49:20.666Z,10.67
2019-03-23T08:51:55.103Z,10.93
2019-03-23T08:54:29.428Z,10.96
2019-03-23T08:57:03.831Z,10.89
2019-03-23T08:59:38.455Z,11.09
2019-03-23T09:02:13.225Z,11.05
2019-03-23T09:04:47.633Z,10.95
2019-03-23T09:07:21.999Z,11.02
2019-03-23T09:09:59.315Z,11.10
2019-03-23T09:12:32.730Z,11.27
2019-03-23T09:15:07.811Z,11.29
2019-03-23T09:17:42.858Z,11.46
2019-03-23T09:20:17.436Z,11.83
2019-03-23T09:22:51.772Z,11.83
2019-03-23T09:25:26.088Z,11.88
2019-03-23T09:28:00.596Z,12.11
2019-03-23T09:30:34.875Z,12.13
2019-03-23T09:33:09.185Z,12.02
2019-03-23T09:35:43.465Z,12.15
2019-03-23T09:38:18.123Z,12.02
2019-03-23T09:40:52.440Z,12.27
2019-03-23T09:43:26.764Z,12.20
2019-03-23T09:46:01.032Z,12.07
2019-03-23T09:48:35.415Z,12.06
2019-03-23T09:51:09.728Z,11.98
2019-03-23T09:53:44.588Z,11.94
2019-03-23T09:56:18.923Z,11.91
2019-03-23T09:58:53.539Z,11.77
2019-03-23T10:01:30.686Z,11.68
2019-03-23T10:04:05.071Z,11.60
2019-03-23T10:06:39.386Z,11.43
2019-03-23T10:09:13.824Z,11.37
2019-03-23T10:11:48.169Z,11.47
2019-03-23T10:14:22.602Z,11.33
2019-03-23T10:16:57.134Z,11.27
2019-03-23T10:19:31.410Z,11.40
2019-03-23T10:22:05.799Z,11.50
2019-03-23T10:24:40.554Z,11.63
2019-03-23T10:27:14.795Z,11.69
2019-03-23T10:29:49.329Z,11.84
2019-03-23T10:32:24.190Z,11.77
2019-03-23T10:34:58.724Z,11.91
2019-03-23T10:37:33.034Z,12.17
2019-03-23T10:40:07.865Z,12.43
2019-03-23T10:42:43.402Z,12.71
2019-03-23T10:45:18.063Z,12.93
2019-03-23T10:47:52.978Z,13.07
2019-03-23T10:50:27.326Z,13.37
2019-03-23T10:53:01.728Z,13.73
2019-03-23T10:55:36.309Z,13.78
2019-03-23T10:58:10.544Z,13.87
2019-03-23T11:00:44.883Z,13.72
2019-03-23T11:03:19.768Z,13.73
2019-03-23T11:05:54.261Z,13.59
2019-03-23T11:08:28.484Z,13.50
2019-03-23T11:11:02.821Z,13.57
2019-03-23T11:13:37.745Z,13.54
2019-03-23T11:16:12.027Z,13.51
2019-03-23T11:18:46.255Z,13.55
2019-03-23T11:21:20.606Z,13.41
2019-03-23T11:23:54.841Z,13.35
2019-03-23T11:26:29.187Z,13.52
2019-03-23T11:29:03.456Z,13.69
2019-03-23T11:31:37.732Z,14.50
2019-03-23T11:34:17.735Z,15.18
2019-03-23T11:36:48.077Z,15.13
2019-03-23T11:39:22.308Z,14.86
2019-03-23T11:41:56.587Z,14.44
2019-03-23T11:44:30.880Z,14.21
2019-03-23T11:47:05.318Z,14.10
2019-03-23T11:49:39.562Z,13.87
2019-03-23T11:52:14.523Z,13.79
2019-03-23T11:54:48.749Z,13.65
2019-03-23T11:57:23.735Z,13.66
2019-03-23T11:59:57.973Z,13.65
2019-03-23T12:02:32.253Z,13.83
2019-03-23T12:05:08.268Z,13.91
2019-03-23T12:07:42.539Z,13.93
2019-03-23T12:10:16.880Z,13.81
2019-03-23T12:12:51.250Z,13.69
2019-03-23T12:15:25.470Z,13.53
2019-03-23T12:17:59.746Z,13.28
2019-03-23T12:20:34.291Z,13.31
2019-03-23T12:23:09.616Z,13.36
2019-03-23T12:25:43.953Z,13.68
2019-03-23T12:28:18.233Z,13.97
2019-03-23T12:30:52.545Z,14.13
2019-03-23T12:33:26.852Z,14.33
2019-03-23T12:36:01.165Z,14.12
2019-03-23T12:38:35.449Z,13.91
2019-03-23T12:41:22.540Z,13.56
2019-03-23T12:43:46.492Z,13.24
2019-03-23T12:46:20.742Z,13.06
2019-03-23T12:48:55.090Z,13.16
2019-03-23T12:51:29.341Z,13.13
2019-03-23T12:54:03.993Z,13.21
2019-03-23T12:56:38.230Z,13.31
2019-03-23T12:59:12.506Z,13.53
2019-03-23T13:01:46.808Z,13.63
2019-03-23T13:04:21.096Z,13.74
2019-03-23T13:06:55.696Z,13.94
2019-03-23T13:09:30.017Z,13.81
2019-03-23T13:12:04.624Z,13.69
2019-03-23T13:14:38.903Z,13.74
2019-03-23T13:17:13.134Z,14.07
2019-03-23T13:19:47.406Z,14.12
2019-03-23T13:22:22.027Z,14.18
2019-03-23T13:24:56.348Z,14.16
2019-03-23T13:27:30.588Z,13.92
2019-03-23T13:30:05.702Z,13.75
2019-03-23T13:32:39.939Z,13.69
2019-03-23T13:35:14.378Z,13.76
2019-03-23T13:37:48.608Z,14.11
2019-03-23T13:40:22.871Z,14.34
2019-03-23T13:42:57.107Z,15.41
2019-03-23T13:45:31.727Z,17.58
2019-03-23T13:48:06.053Z,20.01
2019-03-23T13:50:40.989Z,20.75
2019-03-23T13:53:15.223Z,19.76
2019-03-23T13:55:49.815Z,18.66
2019-03-23T13:58:24.088Z,18.01
2019-03-23T14:00:58.403Z,17.51
2019-03-23T14:03:32.782Z,17.00
2019-03-23T14:06:07.128Z,17.12
2019-03-23T14:08:41.952Z,18.90
2019-03-23T14:11:16.543Z,20.64
2019-03-23T14:13:50.798Z,22.36
2019-03-23T14:16:25.060Z,23.80
2019-03-23T14:18:59.303Z,24.54
2019-03-23T14:21:35.064Z,24.15
2019-03-23T14:24:09.653Z,24.92
2019-03-23T14:26:43.929Z,24.90
2019-03-23T14:29:18.182Z,25.26
2019-03-23T14:31:55.510Z,25.04
2019-03-23T14:34:29.784Z,23.15
2019-03-23T14:37:04.049Z,20.85
2019-03-23T14:39:38.288Z,19.37
2019-03-23T14:42:12.568Z,18.75
2019-03-23T14:44:46.814Z,18.62
2019-03-23T14:47:21.124Z,19.41
2019-03-23T14:49:55.374Z,19.95
2019-03-23T14:52:29.680Z,19.96
2019-03-23T14:55:04.421Z,20.34
2019-03-23T14:57:40.439Z,20.11
2019-03-23T15:00:17.281Z,20.41
2019-03-23T15:02:51.567Z,19.93
2019-03-23T15:05:25.798Z,20.32
2019-03-23T15:08:00.419Z,19.93
2019-03-23T15:10:34.936Z,20.00
2019-03-23T15:13:09.213Z,20.35
2019-03-23T15:15:43.461Z,20.26
2019-03-23T15:18:17.742Z,20.79
2019-03-23T15:20:51.979Z,20.78
2019-03-23T15:23:26.300Z,20.92
2019-03-23T15:26:00.530Z,20.38
2019-03-23T15:28:34.988Z,20.13
2019-03-23T15:31:09.232Z,20.38
2019-03-23T15:33:43.543Z,19.92
2019-03-23T15:36:17.784Z,19.03
2019-03-23T15:38:52.078Z,17.84
2019-03-23T15:41:26.313Z,17.12
2019-03-23T15:44:00.655Z,16.38
2019-03-23T15:46:34.919Z,15.70
2019-03-23T15:49:09.514Z,15.32
2019-03-23T15:51:43.765Z,14.97
2019-03-23T15:54:18.390Z,14.66
2019-03-23T15:56:52.628Z,14.42
2019-03-23T15:59:26.903Z,14.20
2019-03-23T16:02:01.142Z,13.86
2019-03-23T16:04:35.407Z,13.68
2019-03-23T16:07:10.296Z,13.65
2019-03-23T16:09:44.568Z,13.34
2019-03-23T16:12:18.900Z,13.26
2019-03-23T16:14:53.214Z,12.99
2019-03-23T16:17:27.457Z,12.79
2019-03-23T16:20:02.053Z,12.49
2019-03-23T16:22:36.356Z,12.40
2019-03-23T16:25:10.902Z,12.26
2019-03-23T16:27:45.431Z,12.01
2019-03-23T16:30:29.404Z,11.80
2019-03-23T16:33:03.640Z,11.74
2019-03-23T16:35:37.928Z,11.59
2019-03-23T16:38:12.273Z,11.48
2019-03-23T16:40:49.605Z,11.42
2019-03-23T16:43:23.837Z,11.33
2019-03-23T16:45:58.268Z,11.20
2019-03-23T16:48:32.505Z,11.21
2019-03-23T16:51:06.844Z,11.13
2019-03-23T16:53:41.154Z,10.98
2019-03-23T16:56:15.444Z,10.97
2019-03-23T16:58:49.712Z,10.75
2019-03-23T17:01:24.036Z,10.52
2019-03-23T17:03:58.275Z,10.42
2019-03-23T17:06:32.754Z,10.26
2019-03-23T17:09:07.120Z,10.17
2019-03-23T17:11:41.399Z,10.04
2019-03-23T17:14:15.746Z,9.98
2019-03-23T17:16:50.016Z,9.83
2019-03-23T17:19:24.240Z,9.67
2019-03-23T17:21:58.539Z,9.53
2019-03-23T17:24:32.789Z,9.47
2019-03-23T17:27:07.053Z,9.36
2019-03-23T17:29:41.290Z,9.25
2019-03-23T17:32:15.631Z,9.11
2019-03-23T17:34:50.129Z,8.99
2019-03-23T17:37:25.244Z,8.91
2019-03-23T17:39:59.481Z,8.75
2019-03-23T17:42:33.956Z,8.61
2019-03-23T17:45:09.238Z,8.45
2019-03-23T17:47:43.506Z,8.32
2019-03-23T17:50:17.723Z,8.17
2019-03-23T17:52:56.056Z,8.01
2019-03-23T17:55:30.296Z,7.89
2019-03-23T17:58:04.689Z,7.76
2019-03-23T18:00:38.927Z,7.66
2019-03-23T18:03:14.452Z,7.57
2019-03-23T18:05:48.673Z,7.43
2019-03-23T18:08:23.009Z,7.33
2019-03-23T18:10:57.251Z,7.21
2019-03-23T18:13:31.607Z,7.11
2019-03-23T18:16:06.684Z,7.04
2019-03-23T18:18:41.271Z,6.94
2019-03-23T18:21:15.585Z,6.74
2019-03-23T18:23:49.855Z,6.74
2019-03-23T18:26:24.156Z,6.69
2019-03-23T18:28:59.427Z,6.54
2019-03-23T18:31:33.659Z,6.54
2019-03-23T18:34:07.949Z,6.44
2019-03-23T18:36:42.807Z,6.32
2019-03-23T18:39:18.013Z,6.28
2019-03-23T18:41:52.329Z,6.28
2019-03-23T18:44:28.009Z,6.18
2019-03-23T18:47:02.227Z,6.18
2019-03-23T18:49:36.676Z,5.97
2019-03-23T18:52:10.989Z,5.93
2019-03-23T18:54:45.331Z,5.93
2019-03-23T18:57:19.575Z,5.66
2019-03-23T18:59:53.843Z,5.66
2019-03-23T19:02:28.152Z,5.53
2019-03-23T19:05:02.463Z,5.50
2019-03-23T19:07:36.691Z,5.39
2019-03-23T19:10:11.607Z,5.31
2019-03-23T19:12:45.858Z,5.22
2019-03-23T19:15:20.144Z,5.15
2019-03-23T19:17:54.430Z,5.15
2019-03-23T19:20:28.702Z,5.11
2019-03-23T19:23:03.275Z,5.11
2019-03-23T19:25:37.696Z,5.15
2019-03-23T19:28:12.085Z,5.17
2019-03-23T19:30:46.458Z,5.17
2019-03-23T19:33:20.686Z,5.18
2019-03-23T19:35:55.067Z,5.14
2019-03-23T19:38:29.306Z,5.14
2019-03-23T19:41:05.529Z,5.12
2019-03-23T19:43:48.314Z,5.10
2019-03-23T19:46:15.578Z,5.10
2019-03-23T19:48:49.816Z,5.02
2019-03-23T19:51:24.078Z,4.99
2019-03-23T19:53:58.565Z,4.95
2019-03-23T19:56:32.880Z,4.88
2019-03-23T19:59:07.193Z,4.89
2019-03-23T20:01:41.583Z,4.87
2019-03-23T20:04:15.810Z,4.81
2019-03-23T20:06:50.925Z,4.79
2019-03-23T20:09:25.162Z,4.76
2019-03-23T20:11:59.821Z,4.75
2019-03-23T20:14:34.356Z,4.73
2019-03-23T20:17:08.623Z,4.69
2019-03-23T20:19:43.008Z,4.64
2019-03-23T20:22:17.553Z,4.58
2019-03-23T20:24:52.139Z,4.54
2019-03-23T20:27:26.404Z,4.54
2019-03-23T20:30:00.638Z,4.52
2019-03-23T20:32:34.915Z,4.54
2019-03-23T20:35:10.596Z,4.54
2019-03-23T20:37:45.359Z,4.52
2019-03-23T20:40:19.590Z,4.52
2019-03-23T20:42:54.087Z,4.52
2019-03-23T20:45:32.000Z,4.51
2019-03-23T20:48:06.406Z,4.51
2019-03-23T20:50:41.815Z,4.49
2019-03-23T20:53:18.569Z,4.47
2019-03-23T20:55:52.809Z,4.45
2019-03-23T20:58:27.101Z,4.42
2019-03-23T21:01:01.334Z,4.38
2019-03-23T21:03:35.609Z,4.33
2019-03-23T21:06:09.846Z,4.33
2019-03-23T21:08:44.111Z,4.31
2019-03-23T21:11:18.342Z,4.26
2019-03-23T21:13:52.919Z,4.20
2019-03-23T21:16:27.162Z,4.16
2019-03-23T21:19:01.514Z,4.12
2019-03-23T21:21:35.978Z,4.08
2019-03-23T21:24:10.260Z,4.03
2019-03-23T21:26:44.488Z,3.95
2019-03-23T21:29:18.746Z,3.92
2019-03-23T21:31:52.980Z,3.84
2019-03-23T21:34:27.262Z,3.80
2019-03-23T21:37:01.499Z,3.72
2019-03-23T21:39:35.772Z,3.62
2019-03-23T21:42:10.034Z,3.59
2019-03-23T21:44:44.346Z,3.58
2019-03-23T21:47:18.573Z,3.53
2019-03-23T21:49:52.836Z,3.48
2019-03-23T21:52:27.069Z,3.48
2019-03-23T21:55:01.400Z,3.44
2019-03-23T21:57:35.707Z,3.37
2019-03-23T22:00:10.949Z,3.31
2019-03-23T22:02:45.176Z,3.28
2019-03-23T22:05:19.683Z,3.28
2019-03-23T22:07:53.934Z,3.28
2019-03-23T22:10:28.411Z,3.24
2019-03-23T22:13:02.640Z,3.21
2019-03-23T22:15:37.025Z,3.13
2019-03-23T22:18:11.551Z,3.07
2019-03-23T22:20:45.840Z,3.01
2019-03-23T22:23:21.684Z,3.00
2019-03-23T22:25:56.658Z,3.00
2019-03-23T22:28:31.169Z,2.98
2019-03-23T22:31:05.613Z,2.97
2019-03-23T22:33:39.847Z,2.96
2019-03-23T22:36:14.750Z,2.96
2019-03-23T22:38:48.979Z,2.96
2019-03-23T22:41:23.597Z,2.97
2019-03-23T22:43:57.841Z,2.96
2019-03-23T22:46:32.133Z,2.93
2019-03-23T22:49:06.444Z,2.89
2019-03-23T22:51:40.729Z,2.86
2019-03-23T22:54:14.959Z,2.85
2019-03-23T22:56:49.252Z,2.80
2019-03-23T22:59:23.520Z,2.79
2019-03-23T23:01:57.828Z,2.77
2019-03-23T23:04:32.059Z,2.78
2019-03-23T23:07:06.352Z,2.79
2019-03-23T23:09:40.871Z,2.76
2019-03-23T23:12:15.202Z,2.72
2019-03-23T23:14:49.426Z,2.70
2019-03-23T23:17:23.699Z,2.69
2019-03-23T23:19:57.933Z,2.66
2019-03-23T23:22:32.207Z,2.66
2019-03-23T23:25:07.175Z,2.66
2019-03-23T23:27:41.428Z,2.68
2019-03-23T23:30:17.964Z,2.71
2019-03-23T23:32:52.251Z,2.72
2019-03-23T23:35:26.485Z,2.74
2019-03-23T23:38:00.859Z,2.72
2019-03-23T23:40:35.437Z,2.71
2019-03-23T23:43:09.728Z,2.69
2019-03-23T23:45:44.032Z,2.65
2019-03-23T23:48:18.336Z,2.63
2019-03-23T23:50:52.574Z,2.62
2019-03-23T23:53:27.150Z,2.56
2019-03-23T23:56:01.646Z,2.56
2019-03-23T23:58:35.942Z,2.53
